sensor_id;sensor_type;location;lat;lon;timestamp;temperature;humidity
2300;DHT22;1158;48.750;9.078;2023-06-24T00:01:33;11.90;99.90
2300;DHT22;1158;48.750;9.078;2023-06-24T00:04:01;11.90;99.90
2300;DHT22;1158;48.750;9.078;2023-06-24T00:06:28;11.90;99.90
2300;DHT22;1158;48.750;9.078;2023-06-24T00:08:55;11.80;99.90
2300;DHT22;1158;48.750;9.078;2023-06-24T00:11:27;11.70;99.90
2300;DHT22;1158;48.750;9.078;2023-06-24T00:13:54;11.70;99.90
2300;DHT22;1158;48.750;9.078;2023-06-24T00:16:21;11.70;99.90
2300;DHT22;1158;48.750;9.078;2023-06-24T00:18:53;11.60;99.90
2300;DHT22;1158;48.750;9.078;2023-06-24T00:21:22;11.60;99.90
2300;DHT22;1158;48.750;9.078;2023-06-24T00:23:55;11.60;99.90
2300;DHT22;1158;48.750;9.078;2023-06-24T00:26:22;11.50;99.90
2300;DHT22;1158;48.750;9.078;2023-06-24T00:28:49;11.50;99.90
2300;DHT22;1158;48.750;9.078;2023-06-24T00:31:16;11.50;99.90
2300;DHT22;1158;48.750;9.078;2023-06-24T00:33:42;11.50;99.90
2300;DHT22;1158;48.750;9.078;2023-06-24T00:36:09;11.40;99.90
2300;DHT22;1158;48.750;9.078;2023-06-24T00:38:38;11.40;99.90
2300;DHT22;1158;48.750;9.078;2023-06-24T00:41:06;11.40;99.90
2300;DHT22;1158;48.750;9.078;2023-06-24T00:43:33;11.30;99.90
2300;DHT22;1158;48.750;9.078;2023-06-24T00:46:00;11.30;99.90
2300;DHT22;1158;48.750;9.078;2023-06-24T00:48:28;11.20;99.90
2300;DHT22;1158;48.750;9.078;2023-06-24T00:50:57;11.20;99.90
2300;DHT22;1158;48.750;9.078;2023-06-24T00:53:25;11.20;99.90
2300;DHT22;1158;48.750;9.078;2023-06-24T00:55:54;11.20;99.90
2300;DHT22;1158;48.750;9.078;2023-06-24T00:58:22;11.10;99.90
2300;DHT22;1158;48.750;9.078;2023-06-24T01:00:49;11.10;99.90
2300;DHT22;1158;48.750;9.078;2023-06-24T01:03:23;11.00;99.90
2300;DHT22;1158;48.750;9.078;2023-06-24T01:05:50;11.00;99.90
2300;DHT22;1158;48.750;9.078;2023-06-24T01:08:17;11.00;99.90
2300;DHT22;1158;48.750;9.078;2023-06-24T01:10:44;11.00;99.90
2300;DHT22;1158;48.750;9.078;2023-06-24T01:13:12;11.00;99.90
2300;DHT22;1158;48.750;9.078;2023-06-24T01:15:39;11.00;99.90
2300;DHT22;1158;48.750;9.078;2023-06-24T01:18:08;10.90;99.90
2300;DHT22;1158;48.750;9.078;2023-06-24T01:20:43;10.90;99.90
2300;DHT22;1158;48.750;9.078;2023-06-24T01:23:25;10.90;99.90
2300;DHT22;1158;48.750;9.078;2023-06-24T01:26:19;10.80;99.90
2300;DHT22;1158;48.750;9.078;2023-06-24T01:29:17;10.80;99.90
2300;DHT22;1158;48.750;9.078;2023-06-24T01:31:56;10.80;99.90
2300;DHT22;1158;48.750;9.078;2023-06-24T01:34:28;10.80;99.90
2300;DHT22;1158;48.750;9.078;2023-06-24T01:37:10;10.80;99.90
2300;DHT22;1158;48.750;9.078;2023-06-24T01:39:42;10.70;99.90
2300;DHT22;1158;48.750;9.078;2023-06-24T01:42:14;10.70;99.90
2300;DHT22;1158;48.750;9.078;2023-06-24T01:44:43;10.70;99.90
2300;DHT22;1158;48.750;9.078;2023-06-24T01:47:14;10.60;99.90
2300;DHT22;1158;48.750;9.078;2023-06-24T01:49:42;10.60;99.90
2300;DHT22;1158;48.750;9.078;2023-06-24T01:52:10;10.60;99.90
2300;DHT22;1158;48.750;9.078;2023-06-24T01:54:39;10.50;99.90
2300;DHT22;1158;48.750;9.078;2023-06-24T01:57:08;10.50;99.90
2300;DHT22;1158;48.750;9.078;2023-06-24T01:59:38;10.50;99.90
2300;DHT22;1158;48.750;9.078;2023-06-24T02:02:06;10.40;99.90
2300;DHT22;1158;48.750;9.078;2023-06-24T02:04:35;10.40;99.90
2300;DHT22;1158;48.750;9.078;2023-06-24T02:07:03;10.40;99.90
2300;DHT22;1158;48.750;9.078;2023-06-24T02:09:32;10.30;99.90
2300;DHT22;1158;48.750;9.078;2023-06-24T02:12:02;10.30;99.90
2300;DHT22;1158;48.750;9.078;2023-06-24T02:14:30;10.30;99.90
2300;DHT22;1158;48.750;9.078;2023-06-24T02:17:00;10.30;99.90
2300;DHT22;1158;48.750;9.078;2023-06-24T02:19:30;10.30;99.90
2300;DHT22;1158;48.750;9.078;2023-06-24T02:21:59;10.20;99.90
2300;DHT22;1158;48.750;9.078;2023-06-24T02:24:28;10.20;99.90
2300;DHT22;1158;48.750;9.078;2023-06-24T02:26:56;10.20;99.90
2300;DHT22;1158;48.750;9.078;2023-06-24T02:29:26;10.10;99.90
2300;DHT22;1158;48.750;9.078;2023-06-24T02:31:53;10.10;99.90
2300;DHT22;1158;48.750;9.078;2023-06-24T02:34:20;10.00;99.90
2300;DHT22;1158;48.750;9.078;2023-06-24T02:36:46;10.00;99.90
2300;DHT22;1158;48.750;9.078;2023-06-24T02:39:15;10.10;99.90
2300;DHT22;1158;48.750;9.078;2023-06-24T02:41:41;10.00;99.90
2300;DHT22;1158;48.750;9.078;2023-06-24T02:44:09;10.00;99.90
2300;DHT22;1158;48.750;9.078;2023-06-24T02:46:36;10.00;99.90
2300;DHT22;1158;48.750;9.078;2023-06-24T02:49:04;10.00;99.90
2300;DHT22;1158;48.750;9.078;2023-06-24T02:51:32;10.00;99.90
2300;DHT22;1158;48.750;9.078;2023-06-24T02:53:59;10.00;99.90
2300;DHT22;1158;48.750;9.078;2023-06-24T02:56:27;9.90;99.90
2300;DHT22;1158;48.750;9.078;2023-06-24T02:58:54;9.90;99.90
2300;DHT22;1158;48.750;9.078;2023-06-24T03:01:22;9.90;99.90
2300;DHT22;1158;48.750;9.078;2023-06-24T03:03:51;9.90;99.90
2300;DHT22;1158;48.750;9.078;2023-06-24T03:06:21;9.90;99.90
2300;DHT22;1158;48.750;9.078;2023-06-24T03:08:48;9.90;99.90
2300;DHT22;1158;48.750;9.078;2023-06-24T03:11:15;9.90;99.90
2300;DHT22;1158;48.750;9.078;2023-06-24T03:13:44;9.90;99.90
2300;DHT22;1158;48.750;9.078;2023-06-24T03:16:11;9.90;99.90
2300;DHT22;1158;48.750;9.078;2023-06-24T03:18:40;9.90;99.90
2300;DHT22;1158;48.750;9.078;2023-06-24T03:21:07;9.90;99.90
2300;DHT22;1158;48.750;9.078;2023-06-24T03:23:33;9.80;99.90
2300;DHT22;1158;48.750;9.078;2023-06-24T03:26:00;9.80;99.90
2300;DHT22;1158;48.750;9.078;2023-06-24T03:28:28;9.80;99.90
2300;DHT22;1158;48.750;9.078;2023-06-24T03:30:57;9.80;99.90
2300;DHT22;1158;48.750;9.078;2023-06-24T03:33:23;9.80;99.90
2300;DHT22;1158;48.750;9.078;2023-06-24T03:35:52;9.80;99.90
2300;DHT22;1158;48.750;9.078;2023-06-24T03:38:19;9.80;99.90
2300;DHT22;1158;48.750;9.078;2023-06-24T03:40:45;9.80;99.90
2300;DHT22;1158;48.750;9.078;2023-06-24T03:43:12;9.90;99.90
2300;DHT22;1158;48.750;9.078;2023-06-24T03:45:39;9.90;99.90
2300;DHT22;1158;48.750;9.078;2023-06-24T03:48:07;9.90;99.90
2300;DHT22;1158;48.750;9.078;2023-06-24T03:50:34;10.00;99.90
2300;DHT22;1158;48.750;9.078;2023-06-24T03:53:01;10.10;99.90
2300;DHT22;1158;48.750;9.078;2023-06-24T03:55:28;10.10;99.90
2300;DHT22;1158;48.750;9.078;2023-06-24T03:57:54;10.20;99.90
2300;DHT22;1158;48.750;9.078;2023-06-24T04:00:21;10.30;99.90
2300;DHT22;1158;48.750;9.078;2023-06-24T04:02:48;10.30;99.90
2300;DHT22;1158;48.750;9.078;2023-06-24T04:05:16;10.40;99.90
2300;DHT22;1158;48.750;9.078;2023-06-24T04:07:43;10.40;99.90
2300;DHT22;1158;48.750;9.078;2023-06-24T04:10:13;10.50;99.90
2300;DHT22;1158;48.750;9.078;2023-06-24T04:12:39;10.50;99.90
2300;DHT22;1158;48.750;9.078;2023-06-24T04:15:07;10.60;99.90
2300;DHT22;1158;48.750;9.078;2023-06-24T04:17:34;10.60;99.90
2300;DHT22;1158;48.750;9.078;2023-06-24T04:20:01;10.70;99.90
2300;DHT22;1158;48.750;9.078;2023-06-24T04:22:31;10.90;99.90
2300;DHT22;1158;48.750;9.078;2023-06-24T04:24:57;11.00;99.90
2300;DHT22;1158;48.750;9.078;2023-06-24T04:27:24;11.20;99.90
2300;DHT22;1158;48.750;9.078;2023-06-24T04:29:51;11.30;99.90
2300;DHT22;1158;48.750;9.078;2023-06-24T04:32:18;11.40;99.90
2300;DHT22;1158;48.750;9.078;2023-06-24T04:34:44;11.50;99.90
2300;DHT22;1158;48.750;9.078;2023-06-24T04:37:11;11.60;99.90
2300;DHT22;1158;48.750;9.078;2023-06-24T04:39:39;11.70;99.90
2300;DHT22;1158;48.750;9.078;2023-06-24T04:42:06;11.90;99.90
2300;DHT22;1158;48.750;9.078;2023-06-24T04:44:33;12.00;99.90
2300;DHT22;1158;48.750;9.078;2023-06-24T04:47:00;12.20;99.90
2300;DHT22;1158;48.750;9.078;2023-06-24T04:49:26;12.30;99.90
2300;DHT22;1158;48.750;9.078;2023-06-24T04:51:53;12.40;99.90
2300;DHT22;1158;48.750;9.078;2023-06-24T04:54:20;12.60;99.90
2300;DHT22;1158;48.750;9.078;2023-06-24T04:56:48;12.70;99.90
2300;DHT22;1158;48.750;9.078;2023-06-24T04:59:16;12.90;99.90
2300;DHT22;1158;48.750;9.078;2023-06-24T05:01:42;13.00;99.90
2300;DHT22;1158;48.750;9.078;2023-06-24T05:04:09;13.10;99.90
2300;DHT22;1158;48.750;9.078;2023-06-24T05:06:36;13.20;99.90
2300;DHT22;1158;48.750;9.078;2023-06-24T05:09:03;13.30;99.90
2300;DHT22;1158;48.750;9.078;2023-06-24T05:11:29;13.50;99.90
2300;DHT22;1158;48.750;9.078;2023-06-24T05:13:57;13.70;99.90
2300;DHT22;1158;48.750;9.078;2023-06-24T05:16:24;13.90;99.90
2300;DHT22;1158;48.750;9.078;2023-06-24T05:18:51;14.20;99.90
2300;DHT22;1158;48.750;9.078;2023-06-24T05:21:17;14.50;99.90
2300;DHT22;1158;48.750;9.078;2023-06-24T05:23:44;14.90;99.90
2300;DHT22;1158;48.750;9.078;2023-06-24T05:26:17;15.10;99.90
2300;DHT22;1158;48.750;9.078;2023-06-24T05:28:44;15.20;99.90
2300;DHT22;1158;48.750;9.078;2023-06-24T05:31:12;15.40;99.90
2300;DHT22;1158;48.750;9.078;2023-06-24T05:33:38;15.70;99.90
2300;DHT22;1158;48.750;9.078;2023-06-24T05:36:05;15.90;99.90
2300;DHT22;1158;48.750;9.078;2023-06-24T05:38:32;16.10;99.90
2300;DHT22;1158;48.750;9.078;2023-06-24T05:40:58;16.20;99.90
2300;DHT22;1158;48.750;9.078;2023-06-24T05:43:28;16.50;99.90
2300;DHT22;1158;48.750;9.078;2023-06-24T05:45:54;16.70;99.90
2300;DHT22;1158;48.750;9.078;2023-06-24T05:48:22;16.80;99.90
2300;DHT22;1158;48.750;9.078;2023-06-24T05:50:49;17.00;99.90
2300;DHT22;1158;48.750;9.078;2023-06-24T05:53:16;17.20;99.90
2300;DHT22;1158;48.750;9.078;2023-06-24T05:55:42;17.40;99.90
2300;DHT22;1158;48.750;9.078;2023-06-24T05:58:09;17.60;99.90
2300;DHT22;1158;48.750;9.078;2023-06-24T06:00:36;17.70;99.90
2300;DHT22;1158;48.750;9.078;2023-06-24T06:03:03;18.00;99.90
2300;DHT22;1158;48.750;9.078;2023-06-24T06:05:31;18.20;99.90
2300;DHT22;1158;48.750;9.078;2023-06-24T06:08:03;18.50;99.90
2300;DHT22;1158;48.750;9.078;2023-06-24T06:10:30;18.90;99.90
2300;DHT22;1158;48.750;9.078;2023-06-24T06:12:57;20.00;99.90
2300;DHT22;1158;48.750;9.078;2023-06-24T06:15:23;21.20;99.90
2300;DHT22;1158;48.750;9.078;2023-06-24T06:17:58;22.60;99.90
2300;DHT22;1158;48.750;9.078;2023-06-24T06:20:28;23.40;99.70
2300;DHT22;1158;48.750;9.078;2023-06-24T06:22:56;23.90;97.60
2300;DHT22;1158;48.750;9.078;2023-06-24T06:25:35;24.50;95.70
2300;DHT22;1158;48.750;9.078;2023-06-24T06:28:03;25.10;95.00
2300;DHT22;1158;48.750;9.078;2023-06-24T06:30:30;25.70;92.80
2300;DHT22;1158;48.750;9.078;2023-06-24T06:32:57;25.90;91.70
2300;DHT22;1158;48.750;9.078;2023-06-24T06:35:24;26.50;91.30
2300;DHT22;1158;48.750;9.078;2023-06-24T06:37:51;26.60;89.70
2300;DHT22;1158;48.750;9.078;2023-06-24T06:40:21;26.30;90.40
2300;DHT22;1158;48.750;9.078;2023-06-24T06:42:48;26.70;89.20
2300;DHT22;1158;48.750;9.078;2023-06-24T06:45:15;27.10;87.60
2300;DHT22;1158;48.750;9.078;2023-06-24T06:47:41;27.10;88.40
2300;DHT22;1158;48.750;9.078;2023-06-24T06:50:09;27.10;88.10
2300;DHT22;1158;48.750;9.078;2023-06-24T06:52:35;27.70;85.40
2300;DHT22;1158;48.750;9.078;2023-06-24T06:55:04;27.30;86.40
2300;DHT22;1158;48.750;9.078;2023-06-24T06:57:32;26.10;88.30
2300;DHT22;1158;48.750;9.078;2023-06-24T06:59:59;25.60;90.20
2300;DHT22;1158;48.750;9.078;2023-06-24T07:02:25;25.60;90.60
2300;DHT22;1158;48.750;9.078;2023-06-24T07:04:52;26.10;87.50
2300;DHT22;1158;48.750;9.078;2023-06-24T07:07:19;26.30;85.40
2300;DHT22;1158;48.750;9.078;2023-06-24T07:09:46;26.90;84.80
2300;DHT22;1158;48.750;9.078;2023-06-24T07:12:13;27.40;84.20
2300;DHT22;1158;48.750;9.078;2023-06-24T07:14:41;27.70;83.60
2300;DHT22;1158;48.750;9.078;2023-06-24T07:17:08;28.60;80.00
2300;DHT22;1158;48.750;9.078;2023-06-24T07:19:35;28.20;80.00
2300;DHT22;1158;48.750;9.078;2023-06-24T07:22:01;28.10;81.40
2300;DHT22;1158;48.750;9.078;2023-06-24T07:24:28;28.50;79.60
2300;DHT22;1158;48.750;9.078;2023-06-24T07:26:55;28.00;80.60
2300;DHT22;1158;48.750;9.078;2023-06-24T07:29:21;28.30;79.40
2300;DHT22;1158;48.750;9.078;2023-06-24T07:31:49;28.10;80.90
2300;DHT22;1158;48.750;9.078;2023-06-24T07:34:16;28.70;78.20
2300;DHT22;1158;48.750;9.078;2023-06-24T07:36:43;29.30;78.50
2300;DHT22;1158;48.750;9.078;2023-06-24T07:39:09;28.80;78.10
2300;DHT22;1158;48.750;9.078;2023-06-24T07:41:36;28.90;78.40
2300;DHT22;1158;48.750;9.078;2023-06-24T07:44:03;29.10;76.70
2300;DHT22;1158;48.750;9.078;2023-06-24T07:46:30;29.60;76.90
2300;DHT22;1158;48.750;9.078;2023-06-24T07:48:58;29.80;75.40
2300;DHT22;1158;48.750;9.078;2023-06-24T07:51:25;30.20;73.70
2300;DHT22;1158;48.750;9.078;2023-06-24T07:53:51;30.40;73.60
2300;DHT22;1158;48.750;9.078;2023-06-24T07:56:18;29.50;75.60
2300;DHT22;1158;48.750;9.078;2023-06-24T07:58:45;29.70;75.60
2300;DHT22;1158;48.750;9.078;2023-06-24T08:01:11;30.30;74.40
2300;DHT22;1158;48.750;9.078;2023-06-24T08:03:38;30.00;74.40
2300;DHT22;1158;48.750;9.078;2023-06-24T08:06:06;30.10;74.90
2300;DHT22;1158;48.750;9.078;2023-06-24T08:08:33;30.40;73.70
2300;DHT22;1158;48.750;9.078;2023-06-24T08:11:01;30.70;72.50
2300;DHT22;1158;48.750;9.078;2023-06-24T08:13:28;30.50;73.30
2300;DHT22;1158;48.750;9.078;2023-06-24T08:15:55;31.50;72.40
2300;DHT22;1158;48.750;9.078;2023-06-24T08:18:23;31.80;70.40
2300;DHT22;1158;48.750;9.078;2023-06-24T08:20:49;30.50;70.70
2300;DHT22;1158;48.750;9.078;2023-06-24T08:23:17;30.50;72.10
2300;DHT22;1158;48.750;9.078;2023-06-24T08:25:44;30.30;72.10
2300;DHT22;1158;48.750;9.078;2023-06-24T08:28:11;29.80;71.90
2300;DHT22;1158;48.750;9.078;2023-06-24T08:30:37;29.00;70.90
2300;DHT22;1158;48.750;9.078;2023-06-24T08:33:04;29.10;71.70
2300;DHT22;1158;48.750;9.078;2023-06-24T08:35:31;29.20;72.80
2300;DHT22;1158;48.750;9.078;2023-06-24T08:37:57;29.60;73.20
2300;DHT22;1158;48.750;9.078;2023-06-24T08:40:26;29.10;73.50
2300;DHT22;1158;48.750;9.078;2023-06-24T08:42:53;28.70;73.60
2300;DHT22;1158;48.750;9.078;2023-06-24T08:45:21;28.00;73.40
2300;DHT22;1158;48.750;9.078;2023-06-24T08:47:48;28.00;74.10
2300;DHT22;1158;48.750;9.078;2023-06-24T08:50:16;28.30;75.00
2300;DHT22;1158;48.750;9.078;2023-06-24T08:52:50;28.30;73.10
2300;DHT22;1158;48.750;9.078;2023-06-24T08:55:19;27.90;74.80
2300;DHT22;1158;48.750;9.078;2023-06-24T08:57:50;27.90;73.80
2300;DHT22;1158;48.750;9.078;2023-06-24T09:00:17;28.40;75.10
2300;DHT22;1158;48.750;9.078;2023-06-24T09:02:44;28.20;72.30
2300;DHT22;1158;48.750;9.078;2023-06-24T09:05:11;28.50;73.20
2300;DHT22;1158;48.750;9.078;2023-06-24T09:07:38;28.90;72.00
2300;DHT22;1158;48.750;9.078;2023-06-24T09:10:05;29.10;68.70
2300;DHT22;1158;48.750;9.078;2023-06-24T09:12:33;28.80;69.20
2300;DHT22;1158;48.750;9.078;2023-06-24T09:15:02;28.10;70.20
2300;DHT22;1158;48.750;9.078;2023-06-24T09:17:30;28.30;71.20
2300;DHT22;1158;48.750;9.078;2023-06-24T09:20:04;28.90;71.30
2300;DHT22;1158;48.750;9.078;2023-06-24T09:22:31;29.10;71.40
2300;DHT22;1158;48.750;9.078;2023-06-24T09:25:01;29.20;69.20
2300;DHT22;1158;48.750;9.078;2023-06-24T09:27:31;28.80;70.00
2300;DHT22;1158;48.750;9.078;2023-06-24T09:29:58;27.80;72.30
2300;DHT22;1158;48.750;9.078;2023-06-24T09:32:29;27.60;73.50
2300;DHT22;1158;48.750;9.078;2023-06-24T09:34:56;28.00;72.50
2300;DHT22;1158;48.750;9.078;2023-06-24T09:37:23;28.70;72.80
2300;DHT22;1158;48.750;9.078;2023-06-24T09:39:56;28.40;71.20
2300;DHT22;1158;48.750;9.078;2023-06-24T09:42:22;28.90;70.60
2300;DHT22;1158;48.750;9.078;2023-06-24T09:44:53;29.30;69.10
2300;DHT22;1158;48.750;9.078;2023-06-24T09:47:20;29.70;68.90
2300;DHT22;1158;48.750;9.078;2023-06-24T09:49:51;28.50;68.80
2300;DHT22;1158;48.750;9.078;2023-06-24T09:52:18;27.90;71.70
2300;DHT22;1158;48.750;9.078;2023-06-24T09:54:47;28.20;69.60
2300;DHT22;1158;48.750;9.078;2023-06-24T09:57:17;29.10;68.80
2300;DHT22;1158;48.750;9.078;2023-06-24T09:59:45;29.40;69.80
2300;DHT22;1158;48.750;9.078;2023-06-24T10:02:13;29.70;66.70
2300;DHT22;1158;48.750;9.078;2023-06-24T10:04:41;29.70;66.70
2300;DHT22;1158;48.750;9.078;2023-06-24T10:07:09;30.70;66.20
2300;DHT22;1158;48.750;9.078;2023-06-24T10:09:38;30.80;66.40
2300;DHT22;1158;48.750;9.078;2023-06-24T10:12:06;31.20;64.00
2300;DHT22;1158;48.750;9.078;2023-06-24T10:14:33;30.60;63.20
2300;DHT22;1158;48.750;9.078;2023-06-24T10:17:03;30.80;64.60
2300;DHT22;1158;48.750;9.078;2023-06-24T10:19:30;31.00;65.30
2300;DHT22;1158;48.750;9.078;2023-06-24T10:22:08;31.10;64.20
2300;DHT22;1158;48.750;9.078;2023-06-24T10:24:37;31.80;62.60
2300;DHT22;1158;48.750;9.078;2023-06-24T10:27:07;29.50;65.30
2300;DHT22;1158;48.750;9.078;2023-06-24T10:29:34;29.00;66.10
2300;DHT22;1158;48.750;9.078;2023-06-24T10:32:05;28.60;67.60
2300;DHT22;1158;48.750;9.078;2023-06-24T10:34:34;29.00;68.90
2300;DHT22;1158;48.750;9.078;2023-06-24T10:37:10;29.90;65.60
2300;DHT22;1158;48.750;9.078;2023-06-24T10:39:48;30.20;65.10
2300;DHT22;1158;48.750;9.078;2023-06-24T10:42:36;30.60;63.40
2300;DHT22;1158;48.750;9.078;2023-06-24T10:45:15;30.90;63.70
2300;DHT22;1158;48.750;9.078;2023-06-24T10:47:43;30.70;64.00
2300;DHT22;1158;48.750;9.078;2023-06-24T10:50:11;31.30;62.80
2300;DHT22;1158;48.750;9.078;2023-06-24T10:52:41;31.60;61.30
2300;DHT22;1158;48.750;9.078;2023-06-24T10:55:09;31.70;58.50
2300;DHT22;1158;48.750;9.078;2023-06-24T10:57:36;31.20;59.40
2300;DHT22;1158;48.750;9.078;2023-06-24T11:00:03;31.10;59.60
2300;DHT22;1158;48.750;9.078;2023-06-24T11:02:30;31.50;59.80
2300;DHT22;1158;48.750;9.078;2023-06-24T11:04:58;31.90;59.30
2300;DHT22;1158;48.750;9.078;2023-06-24T11:07:26;31.30;59.60
2300;DHT22;1158;48.750;9.078;2023-06-24T11:09:56;30.50;60.20
2300;DHT22;1158;48.750;9.078;2023-06-24T11:12:24;30.70;60.80
2300;DHT22;1158;48.750;9.078;2023-06-24T11:14:52;31.50;61.10
2300;DHT22;1158;48.750;9.078;2023-06-24T11:17:21;32.00;57.70
2300;DHT22;1158;48.750;9.078;2023-06-24T11:19:48;31.70;58.90
2300;DHT22;1158;48.750;9.078;2023-06-24T11:22:15;31.80;59.50
2300;DHT22;1158;48.750;9.078;2023-06-24T11:24:42;32.10;58.80
2300;DHT22;1158;48.750;9.078;2023-06-24T11:27:10;32.40;58.30
2300;DHT22;1158;48.750;9.078;2023-06-24T11:29:36;32.00;57.70
2300;DHT22;1158;48.750;9.078;2023-06-24T11:32:07;32.30;59.60
2300;DHT22;1158;48.750;9.078;2023-06-24T11:34:34;32.50;58.40
2300;DHT22;1158;48.750;9.078;2023-06-24T11:37:09;33.30;58.20
2300;DHT22;1158;48.750;9.078;2023-06-24T11:39:36;33.40;57.60
2300;DHT22;1158;48.750;9.078;2023-06-24T11:42:06;33.20;56.90
2300;DHT22;1158;48.750;9.078;2023-06-24T11:44:35;32.50;55.60
2300;DHT22;1158;48.750;9.078;2023-06-24T11:47:05;33.10;57.50
2300;DHT22;1158;48.750;9.078;2023-06-24T11:49:48;33.80;55.70
2300;DHT22;1158;48.750;9.078;2023-06-24T11:52:14;34.10;56.50
2300;DHT22;1158;48.750;9.078;2023-06-24T11:54:49;34.30;55.00
2300;DHT22;1158;48.750;9.078;2023-06-24T11:57:16;34.70;54.50
2300;DHT22;1158;48.750;9.078;2023-06-24T11:59:44;33.70;55.90
2300;DHT22;1158;48.750;9.078;2023-06-24T12:02:13;34.10;55.50
2300;DHT22;1158;48.750;9.078;2023-06-24T12:04:43;33.40;56.60
2300;DHT22;1158;48.750;9.078;2023-06-24T12:07:10;33.20;56.60
2300;DHT22;1158;48.750;9.078;2023-06-24T12:09:37;33.70;53.90
2300;DHT22;1158;48.750;9.078;2023-06-24T12:12:05;33.70;53.90
2300;DHT22;1158;48.750;9.078;2023-06-24T12:14:32;33.50;55.30
2300;DHT22;1158;48.750;9.078;2023-06-24T12:17:00;32.60;55.40
2300;DHT22;1158;48.750;9.078;2023-06-24T12:19:27;32.70;55.40
2300;DHT22;1158;48.750;9.078;2023-06-24T12:21:54;33.60;54.60
2300;DHT22;1158;48.750;9.078;2023-06-24T12:24:22;33.20;54.10
2300;DHT22;1158;48.750;9.078;2023-06-24T12:26:48;33.10;54.10
2300;DHT22;1158;48.750;9.078;2023-06-24T12:29:15;33.90;54.20
2300;DHT22;1158;48.750;9.078;2023-06-24T12:31:42;34.60;54.30
2300;DHT22;1158;48.750;9.078;2023-06-24T12:34:10;34.40;53.20
2300;DHT22;1158;48.750;9.078;2023-06-24T12:36:36;33.80;52.90
2300;DHT22;1158;48.750;9.078;2023-06-24T12:39:03;33.40;53.50
2300;DHT22;1158;48.750;9.078;2023-06-24T12:41:30;33.80;53.80
2300;DHT22;1158;48.750;9.078;2023-06-24T12:43:57;32.80;52.80
2300;DHT22;1158;48.750;9.078;2023-06-24T12:46:24;33.60;52.90
2300;DHT22;1158;48.750;9.078;2023-06-24T12:48:51;34.50;51.90
2300;DHT22;1158;48.750;9.078;2023-06-24T12:51:19;34.70;50.70
2300;DHT22;1158;48.750;9.078;2023-06-24T12:53:45;34.70;49.90
2300;DHT22;1158;48.750;9.078;2023-06-24T12:56:12;34.00;49.70
2300;DHT22;1158;48.750;9.078;2023-06-24T12:58:39;34.90;50.90
2300;DHT22;1158;48.750;9.078;2023-06-24T13:01:06;35.10;50.50
2300;DHT22;1158;48.750;9.078;2023-06-24T13:03:32;34.60;51.60
2300;DHT22;1158;48.750;9.078;2023-06-24T13:05:59;34.80;52.70
2300;DHT22;1158;48.750;9.078;2023-06-24T13:08:27;35.00;53.10
2300;DHT22;1158;48.750;9.078;2023-06-24T13:10:54;34.10;52.80
2300;DHT22;1158;48.750;9.078;2023-06-24T13:13:25;33.30;52.10
2300;DHT22;1158;48.750;9.078;2023-06-24T13:15:51;33.60;53.30
2300;DHT22;1158;48.750;9.078;2023-06-24T13:18:18;34.50;53.20
2300;DHT22;1158;48.750;9.078;2023-06-24T13:20:45;35.10;52.90
2300;DHT22;1158;48.750;9.078;2023-06-24T13:23:12;35.00;51.90
2300;DHT22;1158;48.750;9.078;2023-06-24T13:25:40;34.90;51.30
2300;DHT22;1158;48.750;9.078;2023-06-24T13:28:06;34.80;50.90
2300;DHT22;1158;48.750;9.078;2023-06-24T13:30:33;35.60;52.00
2300;DHT22;1158;48.750;9.078;2023-06-24T13:33:00;36.20;49.80
2300;DHT22;1158;48.750;9.078;2023-06-24T13:35:26;36.10;50.20
2300;DHT22;1158;48.750;9.078;2023-06-24T13:37:53;36.30;50.80
2300;DHT22;1158;48.750;9.078;2023-06-24T13:40:20;36.10;49.60
2300;DHT22;1158;48.750;9.078;2023-06-24T13:42:48;35.00;50.70
2300;DHT22;1158;48.750;9.078;2023-06-24T13:45:15;34.50;50.80
2300;DHT22;1158;48.750;9.078;2023-06-24T13:47:41;34.20;51.80
2300;DHT22;1158;48.750;9.078;2023-06-24T13:50:09;35.60;52.30
2300;DHT22;1158;48.750;9.078;2023-06-24T13:52:36;36.40;51.30
2300;DHT22;1158;48.750;9.078;2023-06-24T13:55:05;36.40;49.20
2300;DHT22;1158;48.750;9.078;2023-06-24T13:57:32;36.40;50.40
2300;DHT22;1158;48.750;9.078;2023-06-24T14:00:00;36.50;49.90
2300;DHT22;1158;48.750;9.078;2023-06-24T14:02:27;36.20;50.50
2300;DHT22;1158;48.750;9.078;2023-06-24T14:04:54;35.30;50.30
2300;DHT22;1158;48.750;9.078;2023-06-24T14:07:21;35.30;51.30
2300;DHT22;1158;48.750;9.078;2023-06-24T14:09:47;36.10;50.40
2300;DHT22;1158;48.750;9.078;2023-06-24T14:12:14;35.60;51.40
2300;DHT22;1158;48.750;9.078;2023-06-24T14:14:41;35.60;51.00
2300;DHT22;1158;48.750;9.078;2023-06-24T14:17:09;35.20;50.80
2300;DHT22;1158;48.750;9.078;2023-06-24T14:19:37;35.30;51.30
2300;DHT22;1158;48.750;9.078;2023-06-24T14:22:06;35.20;50.30
2300;DHT22;1158;48.750;9.078;2023-06-24T14:24:34;35.20;50.70
2300;DHT22;1158;48.750;9.078;2023-06-24T14:27:01;35.50;50.80
2300;DHT22;1158;48.750;9.078;2023-06-24T14:29:28;35.30;49.10
2300;DHT22;1158;48.750;9.078;2023-06-24T14:31:55;35.50;51.00
2300;DHT22;1158;48.750;9.078;2023-06-24T14:34:23;35.60;49.60
2300;DHT22;1158;48.750;9.078;2023-06-24T14:36:49;35.90;50.00
2300;DHT22;1158;48.750;9.078;2023-06-24T14:39:16;35.40;50.30
2300;DHT22;1158;48.750;9.078;2023-06-24T14:41:43;36.10;50.30
2300;DHT22;1158;48.750;9.078;2023-06-24T14:44:10;35.70;48.90
2300;DHT22;1158;48.750;9.078;2023-06-24T14:46:37;36.30;48.90
2300;DHT22;1158;48.750;9.078;2023-06-24T14:49:04;37.30;48.50
2300;DHT22;1158;48.750;9.078;2023-06-24T14:51:32;37.30;48.60
2300;DHT22;1158;48.750;9.078;2023-06-24T14:53:58;37.50;47.10
2300;DHT22;1158;48.750;9.078;2023-06-24T14:56:25;37.20;49.60
2300;DHT22;1158;48.750;9.078;2023-06-24T14:58:52;37.60;48.50
2300;DHT22;1158;48.750;9.078;2023-06-24T15:01:18;37.20;47.70
2300;DHT22;1158;48.750;9.078;2023-06-24T15:03:45;36.40;48.20
2300;DHT22;1158;48.750;9.078;2023-06-24T15:06:12;36.60;49.30
2300;DHT22;1158;48.750;9.078;2023-06-24T15:08:40;36.30;49.80
2300;DHT22;1158;48.750;9.078;2023-06-24T15:11:07;36.00;50.30
2300;DHT22;1158;48.750;9.078;2023-06-24T15:13:33;36.10;49.70
2300;DHT22;1158;48.750;9.078;2023-06-24T15:16:00;36.40;49.50
2300;DHT22;1158;48.750;9.078;2023-06-24T15:18:27;36.10;49.40
2300;DHT22;1158;48.750;9.078;2023-06-24T15:20:54;35.40;50.40
2300;DHT22;1158;48.750;9.078;2023-06-24T15:23:22;36.20;50.40
2300;DHT22;1158;48.750;9.078;2023-06-24T15:25:50;36.00;50.40
2300;DHT22;1158;48.750;9.078;2023-06-24T15:28:17;36.20;50.60
2300;DHT22;1158;48.750;9.078;2023-06-24T15:30:44;34.90;50.20
2300;DHT22;1158;48.750;9.078;2023-06-24T15:33:11;33.80;51.70
2300;DHT22;1158;48.750;9.078;2023-06-24T15:35:37;34.30;51.30
2300;DHT22;1158;48.750;9.078;2023-06-24T15:38:04;34.50;51.10
2300;DHT22;1158;48.750;9.078;2023-06-24T15:40:31;35.00;51.00
2300;DHT22;1158;48.750;9.078;2023-06-24T15:42:59;35.30;51.30
2300;DHT22;1158;48.750;9.078;2023-06-24T15:45:26;35.50;49.50
2300;DHT22;1158;48.750;9.078;2023-06-24T15:47:53;35.50;50.60
2300;DHT22;1158;48.750;9.078;2023-06-24T15:50:20;35.80;50.00
2300;DHT22;1158;48.750;9.078;2023-06-24T15:52:47;36.10;50.80
2300;DHT22;1158;48.750;9.078;2023-06-24T15:55:13;35.90;50.70
2300;DHT22;1158;48.750;9.078;2023-06-24T15:57:40;36.30;49.90
2300;DHT22;1158;48.750;9.078;2023-06-24T16:00:09;34.60;52.00
2300;DHT22;1158;48.750;9.078;2023-06-24T16:02:36;34.90;51.50
2300;DHT22;1158;48.750;9.078;2023-06-24T16:05:03;33.60;52.30
2300;DHT22;1158;48.750;9.078;2023-06-24T16:07:32;34.50;52.00